createdAt,value
2023-03-17T00:01:53.778Z,34.20
2023-03-17T00:05:05.173Z,34.40
2023-03-17T00:08:16.056Z,34.50
2023-03-17T00:11:24.128Z,34.90
2023-03-17T00:14:34.235Z,34.80
2023-03-17T00:17:46.930Z,34.60
2023-03-17T00:20:55.743Z,34.50
2023-03-17T00:24:05.741Z,34.20
2023-03-17T00:27:18.540Z,34.10
2023-03-17T00:30:30.805Z,34.30
2023-03-17T00:33:42.323Z,34.30
2023-03-17T00:36:52.547Z,34.40
2023-03-17T00:40:06.650Z,34.50
2023-03-17T00:43:17.497Z,34.50
2023-03-17T00:46:29.333Z,34.60
2023-03-17T00:49:41.708Z,34.50
2023-03-17T00:52:53.948Z,34.70
2023-03-17T00:56:07.099Z,34.70
2023-03-17T00:59:21.683Z,34.70
2023-03-17T01:02:36.208Z,34.80
2023-03-17T01:05:47.282Z,34.60
2023-03-17T01:08:57.135Z,34.70
2023-03-17T01:12:08.559Z,35.00
2023-03-17T01:15:21.107Z,35.20
2023-03-17T01:18:35.171Z,35.40
2023-03-17T01:21:48.084Z,35.50
2023-03-17T01:24:59.725Z,35.80
2023-03-17T01:28:11.876Z,36.20
2023-03-17T01:31:22.706Z,36.20
2023-03-17T01:34:30.254Z,36.00
2023-03-17T01:37:43.336Z,35.90
2023-03-17T01:40:56.147Z,35.80
2023-03-17T01:44:07.945Z,35.90
2023-03-17T01:47:24.027Z,35.80
2023-03-17T01:50:34.892Z,35.70
2023-03-17T01:53:43.608Z,35.60
2023-03-17T01:56:54.502Z,35.60
2023-03-17T02:00:08.575Z,35.70
2023-03-17T02:03:19.031Z,35.70
2023-03-17T02:06:32.800Z,35.50
2023-03-17T02:09:42.633Z,35.40
2023-03-17T02:12:53.767Z,35.50
2023-03-17T02:16:07.482Z,35.50
2023-03-17T02:19:15.586Z,35.50
2023-03-17T02:22:26.388Z,35.40
2023-03-17T02:25:39.719Z,35.30
2023-03-17T02:28:50.168Z,35.50
2023-03-17T02:32:01.066Z,35.50
2023-03-17T02:35:12.198Z,35.40
2023-03-17T02:38:24.348Z,35.40
2023-03-17T02:41:32.746Z,35.50
2023-03-17T02:44:41.828Z,35.80
2023-03-17T02:47:53.127Z,35.90
2023-03-17T02:51:04.584Z,35.80
2023-03-17T02:54:13.783Z,35.60
2023-03-17T02:57:26.336Z,35.70
2023-03-17T03:00:38.490Z,35.80
2023-03-17T03:03:50.023Z,35.80
2023-03-17T03:07:03.096Z,35.60
2023-03-17T03:10:21.045Z,35.60
2023-03-17T03:13:30.821Z,35.70
2023-03-17T03:16:39.837Z,35.80
2023-03-17T03:19:51.106Z,35.80
2023-03-17T03:23:00.775Z,35.70
2023-03-17T03:26:10.729Z,35.70
2023-03-17T03:29:22.205Z,35.80
2023-03-17T03:32:35.609Z,35.90
2023-03-17T03:35:41.507Z,35.90
2023-03-17T03:38:51.645Z,35.70
2023-03-17T03:42:00.442Z,35.70
2023-03-17T03:45:15.329Z,35.90
2023-03-17T03:48:27.322Z,35.90
2023-03-17T03:51:37.292Z,35.80
2023-03-17T03:54:50.360Z,35.60
2023-03-17T03:58:00.224Z,35.60
2023-03-17T04:01:13.808Z,35.80
2023-03-17T04:04:25.462Z,35.80
2023-03-17T04:07:36.363Z,35.70
2023-03-17T04:10:47.101Z,35.70
2023-03-17T04:13:55.321Z,35.80
2023-03-17T04:17:06.040Z,36.40
2023-03-17T04:20:20.848Z,35.80
2023-03-17T04:23:33.904Z,35.60
2023-03-17T04:26:45.558Z,35.60
2023-03-17T04:29:54.686Z,35.70
2023-03-17T04:33:08.436Z,35.80
2023-03-17T04:36:22.462Z,35.60
2023-03-17T04:39:33.505Z,35.60
2023-03-17T04:42:44.217Z,35.60
2023-03-17T04:45:55.071Z,35.80
2023-03-17T04:49:06.007Z,35.80
2023-03-17T04:52:17.643Z,35.70
2023-03-17T04:55:28.121Z,35.70
2023-03-17T04:58:39.548Z,35.70
2023-03-17T05:01:51.411Z,35.80
2023-03-17T05:05:05.209Z,35.80
2023-03-17T05:08:15.930Z,35.70
2023-03-17T05:11:25.823Z,35.70
2023-03-17T05:14:36.448Z,35.70
2023-03-17T05:17:47.477Z,35.80
2023-03-17T05:20:58.210Z,35.70
2023-03-17T05:24:07.629Z,35.60
2023-03-17T05:27:20.737Z,35.60
2023-03-17T05:30:31.821Z,35.70
2023-03-17T05:33:40.816Z,35.90
2023-03-17T05:36:48.965Z,35.60
2023-03-17T05:39:56.953Z,35.50
2023-03-17T05:43:08.776Z,35.60
2023-03-17T05:46:20.666Z,35.70
2023-03-17T05:49:30.795Z,35.70
2023-03-17T05:52:40.114Z,35.60
2023-03-17T05:55:53.755Z,35.50
2023-03-17T05:59:04.768Z,35.60
2023-03-17T06:02:15.248Z,35.70
2023-03-17T06:05:28.809Z,35.60
2023-03-17T06:08:39.881Z,35.50
2023-03-17T06:11:50.927Z,35.60
2023-03-17T06:15:02.438Z,35.70
2023-03-17T06:18:10.938Z,35.60
2023-03-17T06:21:23.599Z,35.60
2023-03-17T06:24:34.077Z,35.50
2023-03-17T06:27:44.810Z,35.60
2023-03-17T06:30:54.673Z,35.60
2023-03-17T06:34:04.497Z,35.70
2023-03-17T06:37:15.955Z,35.60
2023-03-17T06:40:26.774Z,35.50
2023-03-17T06:43:34.927Z,35.60
2023-03-17T06:46:46.197Z,35.70
2023-03-17T06:49:57.981Z,35.70
2023-03-17T06:53:10.791Z,35.50
2023-03-17T06:56:29.570Z,35.50
2023-03-17T06:59:28.441Z,35.60
2023-03-17T07:02:38.481Z,35.60
2023-03-17T07:05:50.707Z,35.60
2023-03-17T07:09:03.228Z,35.50
2023-03-17T07:12:12.141Z,35.60
2023-03-17T07:15:25.764Z,35.60
2023-03-17T07:18:38.106Z,35.70
2023-03-17T07:21:48.161Z,35.50
2023-03-17T07:24:58.989Z,35.40
2023-03-17T07:28:09.030Z,35.50
2023-03-17T07:31:22.011Z,35.60
2023-03-17T07:34:29.493Z,35.60
2023-03-17T07:37:38.248Z,35.60
2023-03-17T07:40:48.463Z,35.50
2023-03-17T07:44:00.060Z,35.60
2023-03-17T07:47:10.313Z,35.60
2023-03-17T07:50:22.061Z,35.60
2023-03-17T07:53:33.101Z,35.50
2023-03-17T07:56:43.209Z,35.50
2023-03-17T07:59:54.113Z,35.60
2023-03-17T08:03:10.285Z,35.60
2023-03-17T08:06:20.221Z,35.60
2023-03-17T08:09:29.868Z,35.60
2023-03-17T08:12:44.003Z,35.60
2023-03-17T08:15:54.877Z,35.60
2023-03-17T08:19:04.948Z,35.70
2023-03-17T08:22:14.943Z,35.60
2023-03-17T08:25:26.960Z,35.50
2023-03-17T08:28:35.176Z,35.60
2023-03-17T08:31:46.766Z,35.60
2023-03-17T08:35:00.267Z,35.60
2023-03-17T08:38:09.421Z,35.50
2023-03-17T08:41:18.911Z,35.50
2023-03-17T08:44:31.130Z,35.60
2023-03-17T08:47:42.031Z,35.70
2023-03-17T08:50:52.445Z,35.70
2023-03-17T08:54:02.999Z,35.60
2023-03-17T08:57:14.036Z,35.70
2023-03-17T09:00:29.644Z,35.70
2023-03-17T09:03:42.289Z,35.80
2023-03-17T09:07:03.341Z,35.70
2023-03-17T09:10:10.133Z,35.60
2023-03-17T09:13:21.421Z,35.80
2023-03-17T09:16:33.881Z,35.70
2023-03-17T09:19:45.194Z,35.70
2023-03-17T09:22:56.631Z,35.70
2023-03-17T09:26:07.000Z,35.60
2023-03-17T09:29:17.626Z,35.70
2023-03-17T09:32:28.024Z,36.30
2023-03-17T09:35:39.513Z,35.80
2023-03-17T09:38:48.429Z,36.00
2023-03-17T09:42:12.777Z,35.90
2023-03-17T09:45:39.842Z,35.90
2023-03-17T09:48:55.271Z,35.60
2023-03-17T09:52:08.867Z,35.50
2023-03-17T09:55:25.223Z,35.60
2023-03-17T09:58:36.072Z,35.80
2023-03-17T10:01:48.506Z,35.90
2023-03-17T10:04:59.071Z,35.90
2023-03-17T10:08:29.550Z,36.00
2023-03-17T10:11:30.958Z,35.90
2023-03-17T10:15:08.455Z,36.00
2023-03-17T10:18:17.647Z,36.10
2023-03-17T10:21:33.011Z,36.10
2023-03-17T10:24:42.816Z,36.10
2023-03-17T10:27:55.826Z,36.10
2023-03-17T10:31:09.794Z,36.10
2023-03-17T10:34:22.326Z,36.20
2023-03-17T10:37:34.291Z,36.20
2023-03-17T10:40:46.442Z,36.40
2023-03-17T10:43:56.476Z,36.30
2023-03-17T10:47:05.763Z,36.30
2023-03-17T10:50:24.185Z,36.10
2023-03-17T10:53:34.652Z,36.00
2023-03-17T10:56:46.857Z,36.10
2023-03-17T11:00:00.414Z,36.10
2023-03-17T11:03:17.780Z,36.30
2023-03-17T11:06:27.396Z,36.30
2023-03-17T11:09:38.814Z,36.30
2023-03-17T11:12:53.018Z,36.30
2023-03-17T11:16:05.101Z,36.20
2023-03-17T11:19:17.199Z,36.40
2023-03-17T11:22:31.052Z,36.40
2023-03-17T11:25:41.548Z,36.30
2023-03-17T11:28:54.223Z,36.40
2023-03-17T11:32:07.565Z,36.40
2023-03-17T11:35:54.319Z,36.60
2023-03-17T11:39:08.916Z,36.60
2023-03-17T11:42:17.978Z,36.70
2023-03-17T11:45:33.768Z,36.70
2023-03-17T11:48:48.246Z,36.80
2023-03-17T11:52:00.930Z,36.80
2023-03-17T11:55:13.226Z,36.80
2023-03-17T11:58:28.642Z,36.70
2023-03-17T12:01:45.938Z,36.80
2023-03-17T12:04:57.848Z,36.60
2023-03-17T12:08:08.876Z,36.50
2023-03-17T12:11:18.809Z,36.50
2023-03-17T12:14:31.248Z,36.50
2023-03-17T12:17:45.876Z,36.70
2023-03-17T12:20:58.405Z,36.90
2023-03-17T12:24:12.010Z,37.00
2023-03-17T12:27:24.218Z,37.10
2023-03-17T12:30:38.144Z,37.10
2023-03-17T12:33:53.197Z,36.90
2023-03-17T12:37:05.110Z,36.80
2023-03-17T12:40:21.108Z,36.80
2023-03-17T12:43:42.267Z,36.70
2023-03-17T12:47:18.175Z,36.80
2023-03-17T12:50:44.477Z,37.40
2023-03-17T12:53:52.765Z,38.20
2023-03-17T12:57:06.818Z,37.90
2023-03-17T13:00:30.046Z,37.90
2023-03-17T13:03:39.509Z,37.30
2023-03-17T13:06:49.799Z,37.10
2023-03-17T13:10:19.767Z,37.40
2023-03-17T13:13:42.736Z,37.90
2023-03-17T13:16:54.670Z,38.30
2023-03-17T13:20:21.283Z,38.50
2023-03-17T13:23:36.619Z,38.50
2023-03-17T13:27:02.645Z,38.40
2023-03-17T13:31:04.479Z,38.20
2023-03-17T13:37:33.425Z,37.80
2023-03-17T13:40:45.339Z,37.60
2023-03-17T13:44:04.358Z,37.70
2023-03-17T13:47:20.439Z,38.30
2023-03-17T13:50:38.530Z,38.70
2023-03-17T13:53:51.215Z,38.70
2023-03-17T13:56:59.960Z,38.70
2023-03-17T14:00:23.624Z,38.60
2023-03-17T14:03:36.909Z,38.80
2023-03-17T14:06:44.215Z,38.80
2023-03-17T14:09:53.947Z,38.10
2023-03-17T14:13:05.607Z,37.80
2023-03-17T14:16:16.372Z,37.80
2023-03-17T14:19:30.174Z,38.00
2023-03-17T14:22:48.288Z,38.10
2023-03-17T14:25:58.208Z,38.20
2023-03-17T14:29:09.461Z,38.50
2023-03-17T14:32:20.945Z,38.50
2023-03-17T14:35:34.191Z,38.50
2023-03-17T14:38:45.403Z,38.30
2023-03-17T14:42:05.406Z,37.90
2023-03-17T14:45:24.715Z,37.90
2023-03-17T14:48:35.719Z,38.00
2023-03-17T14:51:45.356Z,38.00
2023-03-17T14:54:59.164Z,38.10
2023-03-17T14:58:14.329Z,38.20
2023-03-17T15:01:30.858Z,38.50
2023-03-17T15:04:42.831Z,38.40
2023-03-17T15:07:53.557Z,38.40
2023-03-17T15:11:07.018Z,38.30
2023-03-17T15:14:21.404Z,38.10
2023-03-17T15:17:35.562Z,38.00
2023-03-17T15:20:48.140Z,37.90
2023-03-17T15:23:58.207Z,38.00
2023-03-17T15:27:10.518Z,38.00
2023-03-17T15:30:22.678Z,38.10
2023-03-17T15:33:37.814Z,38.30
2023-03-17T15:36:48.360Z,38.40
2023-03-17T15:39:58.920Z,38.40
2023-03-17T15:43:10.245Z,38.60
2023-03-17T15:46:25.561Z,39.20
2023-03-17T15:49:35.528Z,38.90
2023-03-17T15:52:44.764Z,39.40
2023-03-17T15:55:55.754Z,39.30
2023-03-17T15:59:05.591Z,38.40
2023-03-17T16:02:33.466Z,38.40
2023-03-17T16:05:44.023Z,38.40
2023-03-17T16:08:53.670Z,39.00
2023-03-17T16:12:03.612Z,39.20
2023-03-17T16:15:23.305Z,40.30
2023-03-17T16:18:32.041Z,41.70
2023-03-17T16:21:43.007Z,41.50
2023-03-17T16:24:55.237Z,42.50
2023-03-17T16:28:06.791Z,42.60
2023-03-17T16:31:27.870Z,42.20
2023-03-17T16:34:37.605Z,42.70
2023-03-17T16:37:45.771Z,41.80
2023-03-17T16:40:55.667Z,41.30
2023-03-17T16:44:03.414Z,41.50
2023-03-17T16:47:15.707Z,41.70
2023-03-17T16:50:29.168Z,42.20
2023-03-17T16:53:41.616Z,42.30
2023-03-17T16:56:53.075Z,42.10
2023-03-17T17:00:01.504Z,42.20
2023-03-17T17:03:10.880Z,42.10
2023-03-17T17:06:20.957Z,42.10
2023-03-17T17:09:29.828Z,42.40
2023-03-17T17:12:41.251Z,42.60
2023-03-17T17:15:51.005Z,42.20
2023-03-17T17:19:00.782Z,41.80
2023-03-17T17:22:10.839Z,41.80
2023-03-17T17:25:21.520Z,42.00
2023-03-17T17:28:32.459Z,41.10
2023-03-17T17:31:43.461Z,40.60
2023-03-17T17:34:55.313Z,40.50
2023-03-17T17:38:03.571Z,40.20
2023-03-17T17:41:11.693Z,40.30
2023-03-17T17:44:23.213Z,40.20
2023-03-17T17:47:32.420Z,40.30
2023-03-17T17:50:43.335Z,40.40
2023-03-17T17:53:53.336Z,40.40
2023-03-17T17:57:03.105Z,40.40
2023-03-17T18:00:15.840Z,40.40
2023-03-17T18:03:27.078Z,40.30
2023-03-17T18:06:35.131Z,40.20
2023-03-17T18:09:46.151Z,40.30
2023-03-17T18:12:54.044Z,39.60
2023-03-17T18:16:05.561Z,39.50
2023-03-17T18:19:17.612Z,39.90
2023-03-17T18:22:29.023Z,40.20
2023-03-17T18:25:39.344Z,40.20
2023-03-17T18:28:48.377Z,40.30
2023-03-17T18:31:58.426Z,40.30
2023-03-17T18:35:12.580Z,40.30
2023-03-17T18:38:20.856Z,40.10
2023-03-17T18:41:30.566Z,40.10
2023-03-17T18:44:42.386Z,40.10
2023-03-17T18:47:52.193Z,40.00
2023-03-17T18:51:02.938Z,39.60
2023-03-17T18:54:14.580Z,39.50
2023-03-17T18:57:25.678Z,39.70
2023-03-17T19:00:37.508Z,39.60
2023-03-17T19:03:49.478Z,39.60
2023-03-17T19:07:00.821Z,39.60
2023-03-17T19:10:11.198Z,39.60
2023-03-17T19:13:20.526Z,39.60
2023-03-17T19:16:29.530Z,39.60
2023-03-17T19:19:39.604Z,39.80
2023-03-17T19:22:54.550Z,39.60
2023-03-17T19:26:06.458Z,39.40
2023-03-17T19:29:15.972Z,39.50
2023-03-17T19:32:26.741Z,38.90
2023-03-17T19:35:34.869Z,38.70
2023-03-17T19:38:47.737Z,38.80
2023-03-17T19:41:55.874Z,39.00
2023-03-17T19:45:10.296Z,39.00
2023-03-17T19:48:20.732Z,39.00
2023-03-17T19:51:28.142Z,39.20
2023-03-17T19:54:41.585Z,39.20
2023-03-17T19:57:50.760Z,39.30
2023-03-17T20:01:03.304Z,39.40
2023-03-17T20:04:14.566Z,39.50
2023-03-17T20:07:23.335Z,39.40
2023-03-17T20:10:34.242Z,39.70
2023-03-17T20:13:44.365Z,39.00
2023-03-17T20:16:54.317Z,38.50
2023-03-17T20:20:03.404Z,38.50
2023-03-17T20:23:13.416Z,38.60
2023-03-17T20:26:23.492Z,38.60
2023-03-17T20:29:30.867Z,38.80
2023-03-17T20:32:41.846Z,38.60
2023-03-17T20:35:49.214Z,38.90
2023-03-17T20:39:00.231Z,38.80
2023-03-17T20:42:11.412Z,38.80
2023-03-17T20:45:22.562Z,39.00
2023-03-17T20:48:33.698Z,38.90
2023-03-17T20:51:43.217Z,38.70
2023-03-17T20:54:55.453Z,38.50
2023-03-17T20:58:04.502Z,38.20
2023-03-17T21:01:15.043Z,38.20
2023-03-17T21:07:39.756Z,38.30
2023-03-17T21:10:50.279Z,38.50
2023-03-17T21:14:00.275Z,38.60
2023-03-17T21:17:10.647Z,38.70
2023-03-17T21:20:22.776Z,38.80
2023-03-17T21:23:33.221Z,38.90
2023-03-17T21:26:43.964Z,38.90
2023-03-17T21:29:55.544Z,39.00
2023-03-17T21:33:06.404Z,39.00
2023-03-17T21:36:15.630Z,39.20
2023-03-17T21:39:25.107Z,39.00
2023-03-17T21:42:36.241Z,38.60
2023-03-17T21:45:46.585Z,38.20
2023-03-17T21:48:57.642Z,38.00
2023-03-17T21:52:08.518Z,38.10
2023-03-17T21:55:17.403Z,38.30
2023-03-17T21:58:29.060Z,38.30
2023-03-17T22:01:38.207Z,38.40
2023-03-17T22:04:47.371Z,38.60
2023-03-17T22:07:59.873Z,38.40
2023-03-17T22:11:15.708Z,38.30
2023-03-17T22:14:29.602Z,38.00
2023-03-17T22:17:39.755Z,37.80
2023-03-17T22:20:49.650Z,37.80
2023-03-17T22:24:00.723Z,37.90
2023-03-17T22:27:11.751Z,38.10
2023-03-17T22:30:23.654Z,38.10
2023-03-17T22:33:34.710Z,38.10
2023-03-17T22:36:47.059Z,38.50
2023-03-17T22:39:59.565Z,38.30
2023-03-17T22:43:09.045Z,38.20
2023-03-17T22:46:20.158Z,37.60
2023-03-17T22:49:31.786Z,37.40
2023-03-17T22:52:39.918Z,37.60
2023-03-17T22:55:51.415Z,37.80
2023-03-17T22:59:04.058Z,37.80
2023-03-17T23:02:13.583Z,38.00
2023-03-17T23:05:22.954Z,38.00
2023-03-17T23:08:37.482Z,38.00
2023-03-17T23:11:47.436Z,37.80
2023-03-17T23:14:57.523Z,37.40
2023-03-17T23:18:09.310Z,37.10
2023-03-17T23:21:23.434Z,37.30
2023-03-17T23:24:35.002Z,37.50
2023-03-17T23:27:43.924Z,37.60
2023-03-17T23:30:53.930Z,37.80
2023-03-17T23:34:05.706Z,37.60
2023-03-17T23:37:21.116Z,37.60
2023-03-17T23:40:32.920Z,37.70
2023-03-17T23:43:42.864Z,38.90
2023-03-17T23:46:54.810Z,37.30
2023-03-17T23:50:05.589Z,37.20
2023-03-17T23:53:15.605Z,37.40
2023-03-17T23:56:26.644Z,37.70
2023-03-17T23:59:35.676Z,37.90
